Time;durP1;ratioP1;P1;durP2;ratioP2;P2;SDS_P1;SDS_P2;PMS_P1;PMS_P2;Temp;Humidity;BMP_temperature;BMP_pressure;BME280_temperature;BME280_humidity;BME280_pressure;Samples;Min_cycle;Max_cycle;Signal;HPM_P1;HPM_P2
2023/10/13 00:07:24;;;;;;;0.80;0.80;;;17.00;99.90;;;;;;5072157;28;20814;-78
2023/10/13 00:09:50;;;;;;;2.20;2.10;;;17.00;99.90;;;;;;5073504;28;20482;-78
2023/10/13 00:12:23;;;;;;;2.30;0.93;;;16.90;99.90;;;;;;5073388;28;20437;-79
2023/10/13 00:14:50;;;;;;;0.50;0.40;;;16.90;99.90;;;;;;5073043;28;20436;-79
2023/10/13 00:17:20;;;;;;;0.50;0.40;;;16.90;99.90;;;;;;5073045;28;20484;-79
2023/10/13 00:19:51;;;;;;;0.47;0.30;;;16.90;99.90;;;;;;5072716;28;20520;-78
2023/10/13 00:22:19;;;;;;;1.60;1.50;;;16.90;99.90;;;;;;5073270;28;20428;-80
2023/10/13 00:24:48;;;;;;;0.50;0.40;;;16.90;99.90;;;;;;5073061;28;20514;-78
2023/10/13 00:27:29;;;;;;;0.50;0.30;;;16.90;99.90;;;;;;5073230;28;20433;-79
2023/10/13 00:30:16;;;;;;;0.60;0.60;;;16.90;99.90;;;;;;5073223;28;20823;-79
2023/10/13 00:32:44;;;;;;;0.50;0.40;;;16.90;99.90;;;;;;5073165;28;20429;-80
2023/10/13 00:35:13;;;;;;;1.17;1.17;;;16.90;99.90;;;;;;5072993;28;20990;-80
2023/10/13 00:37:43;;;;;;;0.50;0.30;;;16.90;99.90;;;;;;5072569;28;20444;-79
2023/10/13 00:40:24;;;;;;;0.50;0.30;;;16.90;99.90;;;;;;5064890;28;20445;-79
2023/10/13 00:42:53;;;;;;;0.50;0.40;;;16.90;99.90;;;;;;5073025;28;20520;-80
2023/10/13 00:45:19;;;;;;;0.50;0.37;;;16.90;99.90;;;;;;5073127;28;20436;-79
2023/10/13 00:47:49;;;;;;;0.43;0.40;;;16.90;99.90;;;;;;5073165;28;20797;-79
2023/10/13 00:50:17;;;;;;;0.93;0.93;;;16.90;99.90;;;;;;5072688;28;20460;-79
2023/10/13 00:52:50;;;;;;;0.50;0.30;;;17.00;99.90;;;;;;5072646;28;20443;-80
2023/10/13 00:55:22;;;;;;;0.50;0.40;;;17.00;99.90;;;;;;5072923;28;20436;-80
2023/10/13 00:57:53;;;;;;;0.50;0.30;;;17.00;99.90;;;;;;5073376;28;20468;-79
2023/10/13 01:00:24;;;;;;;1.27;1.17;;;17.00;99.90;;;;;;5068244;28;20484;-80
2023/10/13 01:02:55;;;;;;;0.47;0.37;;;17.10;99.90;;;;;;5068047;28;20530;-79
2023/10/13 01:05:23;;;;;;;0.50;0.40;;;17.10;99.90;;;;;;5076592;28;20432;-78
2023/10/13 01:07:52;;;;;;;1.67;1.57;;;17.10;99.90;;;;;;5076046;28;20516;-80
2023/10/13 01:10:27;;;;;;;0.50;0.30;;;17.10;99.90;;;;;;5076518;28;20464;-79
2023/10/13 01:12:53;;;;;;;0.50;0.30;;;17.10;99.90;;;;;;5076838;28;20501;-79
2023/10/13 01:15:21;;;;;;;4.63;2.73;;;17.10;99.90;;;;;;5075884;28;21170;-79
2023/10/13 01:17:48;;;;;;;0.50;0.30;;;17.10;99.90;;;;;;5075963;28;20496;-80
2023/10/13 01:20:21;;;;;;;0.50;0.30;;;17.10;99.90;;;;;;5072091;28;20452;-81
2023/10/13 01:22:55;;;;;;;0.40;0.30;;;17.10;99.90;;;;;;5073633;28;20494;-79
2023/10/13 01:25:25;;;;;;;0.50;0.40;;;17.10;99.90;;;;;;5076928;28;20490;-80
2023/10/13 01:27:52;;;;;;;0.50;0.30;;;17.20;99.90;;;;;;5076077;28;20869;-79
2023/10/13 01:30:24;;;;;;;0.40;0.30;;;17.10;99.90;;;;;;5076679;28;20476;-80
2023/10/13 01:32:51;;;;;;;4.40;1.43;;;17.10;99.90;;;;;;5083763;22;20493;-82
2023/10/13 01:35:24;;;;;;;0.50;0.43;;;17.10;99.90;;;;;;5076367;28;20522;-82
2023/10/13 01:37:51;;;;;;;0.60;0.60;;;17.10;99.90;;;;;;5090700;28;20441;-82
2023/10/13 01:40:20;;;;;;;0.47;0.30;;;17.10;99.90;;;;;;5090563;28;20432;-82
2023/10/13 01:42:52;;;;;;;1.13;1.03;;;17.10;99.90;;;;;;5082175;28;20464;-82
2023/10/13 01:45:19;;;;;;;0.50;0.40;;;17.00;99.90;;;;;;5079073;28;20448;-82
2023/10/13 01:47:45;;;;;;;0.53;0.53;;;17.00;99.90;;;;;;5079035;28;20463;-81
2023/10/13 01:50:18;;;;;;;12.90;8.50;;;17.00;99.90;;;;;;5079028;28;20433;-81
2023/10/13 01:52:44;;;;;;;1.50;1.50;;;17.00;99.90;;;;;;5079147;28;20226;-83
2023/10/13 01:55:11;;;;;;;0.50;0.30;;;17.00;99.90;;;;;;5062629;28;20433;-80
2023/10/13 01:57:37;;;;;;;0.40;0.40;;;17.00;99.90;;;;;;5078917;28;20619;-83
2023/10/13 02:00:18;;;;;;;1.37;0.77;;;16.90;99.90;;;;;;5079260;28;20440;-82
2023/10/13 02:02:45;;;;;;;0.53;0.53;;;16.90;99.90;;;;;;5079892;28;20545;-83
2023/10/13 02:05:15;;;;;;;0.67;0.63;;;16.90;99.90;;;;;;5079329;28;20441;-80
2023/10/13 02:07:45;;;;;;;0.50;0.30;;;16.90;99.90;;;;;;5078932;28;20532;-83
2023/10/13 02:10:13;;;;;;;0.47;0.30;;;16.90;99.90;;;;;;5077963;28;20467;-83
2023/10/13 02:12:42;;;;;;;0.50;0.40;;;16.90;99.90;;;;;;5079254;28;20463;-82
2023/10/13 02:15:12;;;;;;;0.87;0.87;;;16.90;99.90;;;;;;5079072;28;20523;-82
2023/10/13 02:17:41;;;;;;;0.50;0.40;;;16.90;99.90;;;;;;5078357;28;21045;-82
2023/10/13 02:20:14;;;;;;;0.40;0.30;;;16.90;99.90;;;;;;5078011;28;20476;-83
2023/10/13 02:22:48;;;;;;;0.40;0.40;;;16.80;99.90;;;;;;5079001;28;20456;-81
2023/10/13 02:25:17;;;;;;;0.40;0.30;;;16.90;99.90;;;;;;5062562;28;20432;-82
2023/10/13 02:27:43;;;;;;;0.83;0.83;;;16.80;99.90;;;;;;5078504;28;20433;-81
2023/10/13 02:30:13;;;;;;;0.40;0.30;;;16.90;99.90;;;;;;5077971;28;20444;-82
2023/10/13 02:32:43;;;;;;;0.50;0.30;;;16.80;99.90;;;;;;5077808;28;20593;-82
2023/10/13 02:35:15;;;;;;;0.70;0.70;;;16.80;99.90;;;;;;5078540;28;20433;-82
2023/10/13 02:37:43;;;;;;;0.50;0.37;;;16.90;99.90;;;;;;5078715;28;20468;-83
2023/10/13 02:40:11;;;;;;;0.50;0.40;;;16.90;99.90;;;;;;5077760;28;20447;-83
2023/10/13 02:42:38;;;;;;;0.60;0.60;;;16.90;99.90;;;;;;5078181;28;20547;-82
2023/10/13 02:45:07;;;;;;;1.00;0.90;;;16.90;99.90;;;;;;5070134;28;20442;-82
2023/10/13 02:47:34;;;;;;;0.50;0.30;;;16.90;99.90;;;;;;5078579;28;20483;-83
2023/10/13 02:50:12;;;;;;;0.40;0.30;;;16.90;99.90;;;;;;5077741;28;20448;-83
2023/10/13 02:52:41;;;;;;;0.40;0.30;;;16.90;99.90;;;;;;5078039;28;20468;-82
2023/10/13 02:55:10;;;;;;;4.27;3.87;;;16.90;99.90;;;;;;5078065;28;20432;-82
2023/10/13 02:57:40;;;;;;;0.50;0.40;;;17.00;99.90;;;;;;5077547;28;20473;-82
2023/10/13 03:00:12;;;;;;;0.80;0.80;;;17.00;99.90;;;;;;5078126;28;20441;-83
2023/10/13 03:02:47;;;;;;;0.50;0.30;;;17.00;99.90;;;;;;5077624;28;20532;-83
2023/10/13 03:05:16;;;;;;;0.40;0.30;;;17.00;99.90;;;;;;5077252;28;20449;-82
2023/10/13 03:07:43;;;;;;;0.40;0.30;;;17.00;99.90;;;;;;5077158;28;20505;-83
2023/10/13 03:10:10;;;;;;;0.47;0.30;;;17.00;99.90;;;;;;5076440;28;20468;-80
2023/10/13 03:12:37;;;;;;;0.50;0.30;;;17.00;99.90;;;;;;5076966;28;20463;-82
2023/10/13 03:15:12;;;;;;;0.60;0.60;;;17.00;99.90;;;;;;5077992;28;20440;-81
2023/10/13 03:17:43;;;;;;;0.50;0.30;;;17.00;99.90;;;;;;5077262;28;20479;-81
2023/10/13 03:20:11;;;;;;;0.40;0.30;;;17.00;99.90;;;;;;5076631;28;20490;-82
2023/10/13 03:22:37;;;;;;;1.10;0.50;;;17.00;99.90;;;;;;5076766;28;20461;-83
2023/10/13 03:25:08;;;;;;;0.40;0.40;;;17.00;99.90;;;;;;5076965;28;20437;-82
2023/10/13 03:28:00;;;;;;;0.50;0.40;;;17.00;99.90;;;;;;5077352;28;20191;-80
2023/10/13 03:30:34;;;;;;;3.33;1.60;;;17.00;99.90;;;;;;5062327;28;20440;-82
2023/10/13 03:33:06;;;;;;;0.50;0.40;;;16.90;99.90;;;;;;5076688;28;20473;-82
2023/10/13 03:35:39;;;;;;;0.50;0.50;;;16.90;99.90;;;;;;5077555;28;20433;-82
2023/10/13 03:38:14;;;;;;;0.40;0.40;;;16.90;99.90;;;;;;5077400;28;20508;-82
2023/10/13 03:40:41;;;;;;;0.90;0.90;;;16.90;99.90;;;;;;5077077;28;20805;-82
2023/10/13 03:43:10;;;;;;;0.40;0.30;;;16.90;99.90;;;;;;5076398;28;20460;-83
2023/10/13 03:45:39;;;;;;;1.80;1.13;;;16.90;99.90;;;;;;5077768;28;20449;-82
2023/10/13 03:48:21;;;;;;;0.83;0.83;;;16.90;99.90;;;;;;5077251;28;20739;-82
2023/10/13 03:50:57;;;;;;;0.40;0.30;;;16.90;99.90;;;;;;5077345;28;20460;-83
2023/10/13 03:53:25;;;;;;;0.40;0.30;;;16.90;99.90;;;;;;5077575;28;20523;-83
2023/10/13 03:56:07;;;;;;;0.50;0.40;;;16.90;99.90;;;;;;5068313;28;20441;-83
2023/10/13 03:58:34;;;;;;;0.43;0.30;;;16.90;99.90;;;;;;5076899;28;20435;-83
2023/10/13 04:01:03;;;;;;;0.40;0.30;;;16.90;99.90;;;;;;5076589;28;20459;-83
2023/10/13 04:03:35;;;;;;;0.50;0.40;;;16.90;99.90;;;;;;5077137;28;20461;-82
2023/10/13 04:06:06;;;;;;;0.53;0.50;;;16.90;99.90;;;;;;5076999;28;20437;-82
2023/10/13 04:14:55;;;;;;;0.57;0.57;;;16.80;99.90;;;;;;5076893;28;20454;-83
2023/10/13 04:17:13;;;;;;;0.40;0.40;;;16.80;99.90;;;;;;5075787;28;20475;-83
2023/10/13 04:20:12;;;;;;;2.40;1.43;;;16.80;99.90;;;;;;5076593;28;20441;-84
2023/10/13 04:25:35;;;;;;;0.40;0.30;;;16.70;99.90;;;;;;5075798;28;20452;-82
2023/10/13 04:28:33;;;;;;;1.23;0.80;;;16.70;99.90;;;;;;5078054;28;20437;-81
2023/10/13 04:31:11;;;;;;;0.50;0.40;;;16.70;99.90;;;;;;5076985;28;20433;-81
2023/10/13 04:33:51;;;;;;;0.40;0.30;;;16.80;99.90;;;;;;5078921;28;20464;-83
2023/10/13 04:36:36;;;;;;;0.40;0.30;;;16.80;99.90;;;;;;5081001;28;20868;-82
2023/10/13 04:39:09;;;;;;;2.23;0.77;;;16.80;99.90;;;;;;5080719;28;20523;-82
2023/10/13 04:41:37;;;;;;;2.87;2.27;;;16.80;99.90;;;;;;5081167;28;20523;-84
2023/10/13 04:44:23;;;;;;;0.40;0.30;;;16.80;99.90;;;;;;5081403;28;20871;-83
2023/10/13 04:47:07;;;;;;;0.40;0.30;;;16.90;99.90;;;;;;5081396;28;20855;-84
2023/10/13 04:49:49;;;;;;;0.80;0.80;;;16.90;99.90;;;;;;5081204;28;20443;-82
2023/10/13 04:52:38;;;;;;;1.57;1.27;;;16.90;99.90;;;;;;5080734;28;20448;-84
2023/10/13 04:55:33;;;;;;;0.40;0.30;;;16.90;99.90;;;;;;5080412;28;20531;-83
2023/10/13 04:58:14;;;;;;;2.37;2.27;;;16.90;99.90;;;;;;5081271;28;20983;-83
2023/10/13 05:01:16;;;;;;;0.40;0.33;;;16.90;99.90;;;;;;5081090;28;20524;-83
2023/10/13 05:04:20;;;;;;;0.40;0.40;;;16.90;99.90;;;;;;5079626;28;20470;-84
2023/10/13 05:46:02;;;;;;;0.50;0.50;;;17.10;99.90;;;;;;5037050;28;20436;-85
2023/10/13 05:48:41;;;;;;;0.80;0.80;;;17.10;99.90;;;;;;5080678;28;20428;-85
2023/10/13 06:29:46;;;;;;;0.93;0.83;;;17.20;99.90;;;;;;5080198;28;20411;-83
2023/10/13 06:32:16;;;;;;;2.63;2.47;;;17.20;99.90;;;;;;5079171;28;20505;-83
2023/10/13 06:34:44;;;;;;;1.63;1.53;;;17.20;99.90;;;;;;5081051;28;20444;-83
2023/10/13 06:37:23;;;;;;;1.13;1.13;;;17.20;99.90;;;;;;5079668;28;20601;-83
2023/10/13 06:39:49;;;;;;;2.40;2.20;;;17.20;99.90;;;;;;5067003;28;20432;-83
2023/10/13 06:42:19;;;;;;;11.93;0.97;;;17.20;99.90;;;;;;5079725;28;20432;-82
2023/10/13 06:44:46;;;;;;;1.70;0.80;;;17.20;99.90;;;;;;5080530;28;20469;-83
2023/10/13 06:47:14;;;;;;;2.53;2.30;;;17.20;99.90;;;;;;5081260;28;20461;-83
2023/10/13 06:49:43;;;;;;;0.50;0.50;;;17.20;99.90;;;;;;5079108;28;20433;-83
2023/10/13 06:52:10;;;;;;;0.83;0.80;;;17.20;99.90;;;;;;5079581;28;20460;-81
2023/10/13 06:54:38;;;;;;;0.60;0.60;;;17.30;99.90;;;;;;5080359;28;20444;-82
2023/10/13 06:57:06;;;;;;;0.77;0.77;;;17.30;99.90;;;;;;5079873;28;20500;-83
2023/10/13 06:59:34;;;;;;;2.07;1.97;;;17.30;99.90;;;;;;5078835;28;20437;-81
2023/10/13 07:02:05;;;;;;;0.40;0.40;;;17.40;99.90;;;;;;5079565;28;20531;-83
2023/10/13 07:04:33;;;;;;;0.40;0.40;;;17.40;99.90;;;;;;5079937;28;20510;-83
2023/10/13 07:07:01;;;;;;;0.40;0.40;;;17.50;99.90;;;;;;5080571;28;20528;-82
2023/10/13 07:09:40;;;;;;;3.03;1.33;;;17.50;99.90;;;;;;5080229;28;20448;-82
2023/10/13 07:12:07;;;;;;;0.57;0.57;;;17.50;99.90;;;;;;5080497;28;20437;-82
2023/10/13 07:14:35;;;;;;;0.80;0.80;;;17.50;99.90;;;;;;5079974;28;21794;-83
2023/10/13 07:17:04;;;;;;;0.40;0.30;;;17.60;99.90;;;;;;5081172;28;20468;-82
2023/10/13 07:19:33;;;;;;;0.40;0.40;;;17.70;99.90;;;;;;5079996;28;20445;-82
2023/10/13 07:22:18;;;;;;;0.40;0.30;;;17.80;99.90;;;;;;5081243;28;20472;-83
2023/10/13 07:24:48;;;;;;;0.40;0.40;;;17.80;99.90;;;;;;5081896;28;20443;-84
2023/10/13 07:27:22;;;;;;;0.40;0.30;;;17.80;99.90;;;;;;5087617;28;20463;-83
2023/10/13 07:29:55;;;;;;;0.40;0.30;;;17.80;99.90;;;;;;5068890;28;20432;-82
2023/10/13 07:32:25;;;;;;;1.23;1.23;;;17.80;99.90;;;;;;5083540;28;20448;-82
2023/10/13 07:34:56;;;;;;;0.40;0.40;;;17.90;99.90;;;;;;5076073;22;20496;-80
2023/10/13 07:37:28;;;;;;;0.70;0.70;;;17.90;99.90;;;;;;5059945;28;20515;-80
2023/10/13 07:39:58;;;;;;;0.40;0.30;;;17.90;99.90;;;;;;5054526;28;20433;-80
2023/10/13 07:42:30;;;;;;;0.60;0.50;;;17.90;99.90;;;;;;5061516;28;20437;-80
2023/10/13 07:44:58;;;;;;;0.40;0.30;;;18.00;99.90;;;;;;5072536;28;20465;-80
2023/10/13 07:47:27;;;;;;;0.40;0.30;;;18.10;99.90;;;;;;5072618;28;20440;-80
2023/10/13 07:49:56;;;;;;;0.40;0.30;;;18.10;99.90;;;;;;5072100;28;20448;-79
2023/10/13 07:52:35;;;;;;;0.80;0.80;;;18.10;99.90;;;;;;5072584;28;20881;-82
2023/10/13 07:55:10;;;;;;;0.40;0.30;;;18.10;99.90;;;;;;5072913;28;20460;-77
2023/10/13 07:57:52;;;;;;;0.40;0.30;;;18.30;99.90;;;;;;5071928;28;20483;-80
2023/10/13 08:00:29;;;;;;;1.30;1.20;;;18.60;99.90;;;;;;5072230;28;20472;-77
2023/10/13 08:03:08;;;;;;;3.47;2.10;;;18.90;99.90;;;;;;5072403;28;20440;-80
2023/10/13 08:05:55;;;;;;;0.47;0.33;;;19.40;99.90;;;;;;5072418;28;20444;-79
2023/10/13 08:08:25;;;;;;;0.50;0.40;;;19.80;99.90;;;;;;5072405;28;20468;-79
2023/10/13 08:10:55;;;;;;;0.73;0.50;;;20.50;99.90;;;;;;5072325;28;20448;-80
2023/10/13 08:13:23;;;;;;;0.50;0.40;;;21.00;99.90;;;;;;5072435;28;20582;-80
2023/10/13 08:15:52;;;;;;;0.40;0.30;;;21.20;99.90;;;;;;5072222;28;20542;-79
2023/10/13 08:18:29;;;;;;;3.93;3.60;;;21.10;99.90;;;;;;5072547;28;20564;-78
2023/10/13 08:21:03;;;;;;;0.50;0.30;;;21.00;99.90;;;;;;5058289;28;20440;-79
2023/10/13 08:23:57;;;;;;;1.53;1.30;;;21.20;99.90;;;;;;5073225;28;20464;-80
2023/10/13 08:26:38;;;;;;;1.03;0.70;;;21.70;99.90;;;;;;5072482;28;20433;-77
2023/10/13 08:32:05;;;;;;;4.93;1.37;;;22.70;99.90;;;;;;5063291;28;20431;-80
2023/10/13 08:34:38;;;;;;;0.50;0.50;;;22.80;99.90;;;;;;5072695;28;20496;-80
2023/10/13 08:37:19;;;;;;;0.50;0.30;;;22.50;99.90;;;;;;5073206;28;20437;-79
2023/10/13 08:42:55;;;;;;;0.60;0.40;;;22.80;99.90;;;;;;5074566;28;20959;-79
2023/10/13 08:48:15;;;;;;;0.70;0.70;;;22.90;99.90;;;;;;5073786;28;20517;-80
2023/10/13 08:50:48;;;;;;;0.50;0.50;;;22.60;99.90;;;;;;5074469;28;20451;-80
2023/10/13 08:53:27;;;;;;;0.50;0.30;;;22.40;99.90;;;;;;5074704;28;20488;-78
2023/10/13 08:56:04;;;;;;;0.50;0.30;;;22.80;99.90;;;;;;5058971;28;20441;-80
2023/10/13 09:01:12;;;;;;;0.60;0.60;;;22.90;99.90;;;;;;5075815;28;20439;-80
2023/10/13 09:03:39;;;;;;;10.23;0.70;;;22.90;99.90;;;;;;5072026;28;20460;-79
2023/10/13 09:06:07;;;;;;;0.50;0.40;;;22.80;99.90;;;;;;5071808;28;20872;-79
2023/10/13 09:08:58;;;;;;;0.50;0.50;;;22.80;99.90;;;;;;5071996;28;20835;-79
2023/10/13 09:11:27;;;;;;;0.50;0.30;;;22.90;99.90;;;;;;5071856;28;20443;-78
2023/10/13 09:13:53;;;;;;;0.50;0.30;;;23.00;99.90;;;;;;5056909;28;20464;-79
2023/10/13 09:19:06;;;;;;;0.83;0.83;;;23.50;99.90;;;;;;5059965;28;20210;-76
2023/10/13 09:21:54;;;;;;;1.43;1.33;;;23.50;99.90;;;;;;5077181;28;20451;-78
2023/10/13 09:24:27;;;;;;;1.33;0.77;;;23.40;99.90;;;;;;5078583;28;20472;-78
2023/10/13 09:26:55;;;;;;;0.50;0.30;;;23.20;99.90;;;;;;5070966;28;20440;-79
2023/10/13 09:29:24;;;;;;;0.50;0.30;;;22.90;99.90;;;;;;5079517;28;20463;-78
2023/10/13 09:32:00;;;;;;;1.47;1.10;;;22.70;99.90;;;;;;5078931;28;20445;-79
2023/10/13 09:34:30;;;;;;;0.50;0.40;;;22.70;99.90;;;;;;5078838;28;20467;-78
2023/10/13 09:36:58;;;;;;;2.50;0.40;;;22.60;99.90;;;;;;5063921;28;20448;-78
2023/10/13 09:39:44;;;;;;;0.50;0.40;;;22.30;99.90;;;;;;5079220;28;20472;-79
2023/10/13 09:42:12;;;;;;;10.03;1.27;;;22.30;99.90;;;;;;5067319;28;20445;-76
2023/10/13 09:44:40;;;;;;;0.50;0.40;;;22.50;99.90;;;;;;5079439;28;20464;-79
2023/10/13 09:47:17;;;;;;;0.50;0.30;;;22.60;99.90;;;;;;5079086;28;20479;-79
2023/10/13 09:49:51;;;;;;;0.50;0.30;;;22.60;99.90;;;;;;5079354;28;20485;-78
2023/10/13 09:52:24;;;;;;;0.50;0.40;;;22.50;99.90;;;;;;5078386;28;20513;-79
2023/10/13 09:55:09;;;;;;;0.50;0.40;;;22.60;99.90;;;;;;5074602;28;20452;-80
2023/10/13 09:57:44;;;;;;;0.50;0.40;;;22.60;99.90;;;;;;5074920;28;20480;-79
2023/10/13 10:03:29;;;;;;;1.70;0.90;;;22.60;99.90;;;;;;5001287;28;21003;-78
2023/10/13 10:06:03;;;;;;;3.70;1.20;;;22.60;99.90;;;;;;5059153;28;20935;-80
2023/10/13 10:08:33;;;;;;;1.37;1.27;;;22.60;99.90;;;;;;5074131;28;20472;-80
2023/10/13 10:11:23;;;;;;;0.50;0.40;;;22.60;99.90;;;;;;5058722;28;20440;-80
2023/10/13 10:14:03;;;;;;;8.50;2.13;;;22.70;99.90;;;;;;5074361;28;20476;-80
2023/10/13 10:16:41;;;;;;;0.93;0.60;;;22.90;99.90;;;;;;5074366;28;21043;-80
2023/10/13 10:19:08;;;;;;;0.50;0.30;;;22.90;99.90;;;;;;5060882;28;20481;-79
2023/10/13 10:21:36;;;;;;;0.50;0.37;;;22.80;99.90;;;;;;5074400;28;20448;-80
2023/10/13 10:24:08;;;;;;;0.90;0.60;;;22.90;99.90;;;;;;5076196;28;20462;-79
2023/10/13 10:26:36;;;;;;;0.50;0.50;;;22.70;99.90;;;;;;5075089;28;20514;-80
2023/10/13 10:29:13;;;;;;;0.50;0.50;;;22.60;99.90;;;;;;5075796;28;20777;-80
2023/10/13 10:31:45;;;;;;;1.47;0.83;;;22.70;99.90;;;;;;5074580;28;20462;-80
2023/10/13 10:34:13;;;;;;;0.50;0.30;;;22.80;99.90;;;;;;5074498;28;20460;-80
2023/10/13 10:36:43;;;;;;;1.00;0.83;;;22.70;99.90;;;;;;5074585;28;20967;-80
2023/10/13 10:39:11;;;;;;;1.13;0.70;;;22.80;99.90;;;;;;5075603;28;20476;-80
2023/10/13 10:41:45;;;;;;;0.50;0.33;;;22.70;99.90;;;;;;5075090;28;20447;-80
2023/10/13 10:44:16;;;;;;;1.30;0.83;;;22.70;99.90;;;;;;5076047;28;20959;-79
2023/10/13 10:46:52;;;;;;;0.50;0.30;;;22.60;99.90;;;;;;5074989;28;21008;-81
2023/10/13 10:49:27;;;;;;;0.90;0.57;;;22.70;99.90;;;;;;5075713;28;20464;-80
2023/10/13 10:52:01;;;;;;;0.50;0.40;;;22.50;99.90;;;;;;5076103;28;20927;-81
2023/10/13 10:54:31;;;;;;;0.50;0.40;;;22.70;99.90;;;;;;5076928;28;20448;-82
2023/10/13 10:57:10;;;;;;;1.33;1.23;;;22.80;99.90;;;;;;5075180;28;20443;-81
2023/10/13 10:59:38;;;;;;;4.43;3.17;;;22.90;99.90;;;;;;5074565;28;20476;-79
2023/10/13 11:02:07;;;;;;;11.00;2.10;;;23.10;99.90;;;;;;5074803;28;20436;-80
2023/10/13 11:04:40;;;;;;;1.27;1.17;;;23.10;99.90;;;;;;5074645;28;20453;-79
2023/10/13 11:07:08;;;;;;;1.77;1.67;;;23.10;99.90;;;;;;5059805;28;20441;-80
2023/10/13 11:09:45;;;;;;;0.70;0.70;;;23.00;99.90;;;;;;5074449;28;20821;-80
2023/10/13 11:12:23;;;;;;;1.23;1.23;;;23.00;99.90;;;;;;5061197;28;20990;-76
2023/10/13 11:15:01;;;;;;;1.30;0.93;;;23.00;99.90;;;;;;5065806;28;20828;-79
2023/10/13 11:17:39;;;;;;;0.50;0.43;;;22.90;99.90;;;;;;5073859;28;20467;-80
2023/10/13 11:20:16;;;;;;;0.50;0.30;;;23.00;99.90;;;;;;5066239;28;20474;-80
2023/10/13 11:22:47;;;;;;;0.60;0.50;;;23.00;99.90;;;;;;5074867;28;20437;-80
2023/10/13 11:25:23;;;;;;;0.50;0.50;;;23.10;99.90;;;;;;5074016;28;20475;-79
2023/10/13 11:28:06;;;;;;;0.70;0.67;;;23.20;99.90;;;;;;5074463;28;20467;-80
2023/10/13 11:30:41;;;;;;;1.83;1.73;;;23.40;99.90;;;;;;5075354;28;20445;-81
2023/10/13 11:33:09;;;;;;;0.97;0.70;;;23.80;99.90;;;;;;5060347;28;20444;-81
2023/10/13 11:35:55;;;;;;;0.50;0.30;;;24.10;99.90;;;;;;5077119;28;20520;-77
2023/10/13 11:38:26;;;;;;;4.10;1.33;;;24.70;99.90;;;;;;5065620;28;20950;-81
2023/10/13 11:41:08;;;;;;;3.23;3.03;;;25.20;99.90;;;;;;5065889;28;20448;-80
2023/10/13 11:43:52;;;;;;;0.70;0.57;;;25.30;99.90;;;;;;5074192;28;20492;-80
2023/10/13 11:49:17;;;;;;;4.93;2.67;;;25.70;99.90;;;;;;5073423;28;20474;-80
2023/10/13 11:51:45;;;;;;;1.37;1.27;;;25.90;99.90;;;;;;5075450;28;20872;-80
2023/10/13 11:54:11;;;;;;;1.93;1.27;;;25.20;99.90;;;;;;5074510;28;20452;-80
2023/10/13 11:56:38;;;;;;;0.50;0.47;;;25.00;99.90;;;;;;5074047;28;20482;-80
2023/10/13 11:59:15;;;;;;;4.77;2.10;;;24.90;99.90;;;;;;5057958;28;20495;-80
2023/10/13 12:04:34;;;;;;;2.20;1.07;;;24.60;99.90;;;;;;5074500;28;20954;-81
2023/10/13 12:07:14;;;;;;;2.53;1.00;;;24.50;99.90;;;;;;5074658;28;20506;-80
2023/10/13 12:09:52;;;;;;;1.00;1.00;;;24.40;99.90;;;;;;5074111;28;20433;-80
2023/10/13 12:12:19;;;;;;;0.80;0.80;;;24.30;99.90;;;;;;5073962;28;20436;-80
2023/10/13 12:14:54;;;;;;;4.43;1.00;;;24.40;99.90;;;;;;5074287;28;20449;-80
2023/10/13 12:17:25;;;;;;;1.27;1.17;;;24.40;99.90;;;;;;5074367;28;20437;-79
2023/10/13 12:19:53;;;;;;;3.00;2.70;;;24.30;99.90;;;;;;5074320;28;20461;-80
2023/10/13 12:22:27;;;;;;;0.50;0.37;;;24.20;99.90;;;;;;5073971;28;20441;-81
2023/10/13 12:24:54;;;;;;;0.50;0.30;;;24.20;99.90;;;;;;5074260;28;20468;-79
2023/10/13 12:27:23;;;;;;;0.97;0.80;;;24.30;99.90;;;;;;5073693;28;20455;-80
2023/10/13 12:29:52;;;;;;;19.97;1.80;;;24.20;99.90;;;;;;5073757;28;20451;-80
2023/10/13 12:32:22;;;;;;;0.90;0.67;;;24.10;99.90;;;;;;5074572;28;20451;-81
2023/10/13 12:37:49;;;;;;;0.67;0.60;;;24.10;99.90;;;;;;5073090;28;20421;-80
2023/10/13 12:51:21;;;;;;;0.50;0.40;;;24.00;99.90;;;;;;5060624;28;20510;-81
2023/10/13 12:53:49;;;;;;;1.20;1.10;;;24.00;99.90;;;;;;5074668;28;20532;-80
2023/10/13 12:56:16;;;;;;;2.00;0.83;;;24.00;99.90;;;;;;5078145;28;20428;-81
2023/10/13 12:58:51;;;;;;;1.60;0.73;;;23.90;99.90;;;;;;5077661;28;20549;-78
2023/10/13 13:01:21;;;;;;;0.50;0.40;;;23.90;99.90;;;;;;5077979;28;20531;-81
2023/10/13 13:03:48;;;;;;;13.13;3.07;;;23.90;99.90;;;;;;5077630;28;20457;-80
2023/10/13 13:06:24;;;;;;;3.47;3.17;;;24.00;99.90;;;;;;5077862;28;20928;-80
2023/10/13 13:08:51;;;;;;;0.60;0.60;;;24.10;99.90;;;;;;5077717;28;20461;-80
2023/10/13 13:11:18;;;;;;;23.07;2.10;;;24.00;99.90;;;;;;5077697;28;20433;-81
2023/10/13 13:13:46;;;;;;;1.00;0.90;;;23.90;99.90;;;;;;5077173;28;20448;-80
2023/10/13 13:16:13;;;;;;;5.70;1.63;;;23.90;99.90;;;;;;5077623;28;20436;-81
2023/10/13 13:18:43;;;;;;;0.77;0.60;;;23.80;99.90;;;;;;5076956;28;20507;-81
2023/10/13 13:21:11;;;;;;;1.70;1.10;;;23.80;99.90;;;;;;5076992;28;20555;-81
2023/10/13 13:23:39;;;;;;;0.97;0.80;;;23.80;99.90;;;;;;5077899;28;20465;-80
2023/10/13 13:26:15;;;;;;;5.20;1.30;;;23.90;99.90;;;;;;5077365;28;20470;-80
2023/10/13 13:28:42;;;;;;;0.97;0.90;;;23.90;99.90;;;;;;5077645;28;20519;-81
2023/10/13 13:31:09;;;;;;;1.53;0.83;;;24.00;99.90;;;;;;5074275;28;20457;-80
2023/10/13 13:33:38;;;;;;;2.10;1.27;;;24.00;99.90;;;;;;5071672;28;20460;-81
2023/10/13 13:36:07;;;;;;;0.70;0.70;;;24.00;99.90;;;;;;5077664;28;20444;-78
2023/10/13 13:38:34;;;;;;;2.60;1.43;;;23.90;99.90;;;;;;5077225;28;20444;-81
2023/10/13 13:41:02;;;;;;;2.03;1.83;;;23.80;99.90;;;;;;5076375;28;20437;-81
2023/10/13 13:43:50;;;;;;;0.73;0.73;;;23.80;99.90;;;;;;5076785;28;20460;-80
2023/10/13 13:46:18;;;;;;;1.67;1.57;;;23.70;99.90;;;;;;5077020;28;20439;-80
2023/10/13 13:48:47;;;;;;;1.70;1.60;;;23.70;99.90;;;;;;5077221;28;20435;-81
2023/10/13 13:51:19;;;;;;;3.23;2.00;;;23.60;99.90;;;;;;5076760;28;20491;-79
2023/10/13 13:53:47;;;;;;;2.50;1.90;;;23.60;99.90;;;;;;5076612;28;20824;-80
2023/10/13 13:56:16;;;;;;;0.53;0.43;;;23.60;99.90;;;;;;5076305;28;20429;-80
2023/10/13 13:58:43;;;;;;;2.77;1.17;;;23.50;99.90;;;;;;5076666;28;20483;-79
2023/10/13 14:01:14;;;;;;;0.97;0.97;;;23.40;99.90;;;;;;5076718;28;20444;-81
2023/10/13 14:03:45;;;;;;;4.13;1.77;;;23.40;99.90;;;;;;5076756;28;20452;-80
2023/10/13 14:06:17;;;;;;;1.63;1.30;;;23.50;99.90;;;;;;5075083;28;20812;-81
2023/10/13 14:08:48;;;;;;;1.40;1.30;;;23.50;99.90;;;;;;5076612;28;20426;-80
2023/10/13 14:11:22;;;;;;;3.70;1.33;;;23.60;99.90;;;;;;5073302;28;20536;-79
2023/10/13 14:13:48;;;;;;;2.77;1.30;;;23.60;99.90;;;;;;5072188;28;20460;-80
2023/10/13 14:16:17;;;;;;;2.60;1.70;;;23.50;99.90;;;;;;5075923;28;20928;-80
2023/10/13 14:18:45;;;;;;;0.60;0.50;;;23.40;99.90;;;;;;5075884;28;20436;-78
2023/10/13 14:21:16;;;;;;;0.70;0.60;;;23.40;99.90;;;;;;5076634;28;20440;-78
2023/10/13 14:23:46;;;;;;;0.50;0.40;;;23.40;99.90;;;;;;5075734;28;20453;-81
2023/10/13 14:26:14;;;;;;;0.50;0.40;;;23.30;99.90;;;;;;5075720;28;20433;-81
2023/10/13 14:28:51;;;;;;;0.70;0.60;;;23.30;99.90;;;;;;5075983;28;20442;-80
2023/10/13 14:31:19;;;;;;;10.23;2.37;;;23.20;99.90;;;;;;5067615;28;20826;-79
2023/10/13 14:33:47;;;;;;;4.57;1.63;;;23.10;99.90;;;;;;5075869;28;20560;-81
2023/10/13 14:36:19;;;;;;;1.80;1.70;;;23.10;99.90;;;;;;5074942;28;20873;-81
2023/10/13 14:38:49;;;;;;;4.57;4.03;;;23.10;99.90;;;;;;5075874;28;20447;-79
2023/10/13 14:41:17;;;;;;;0.50;0.50;;;23.10;99.90;;;;;;5076069;28;20487;-81
2023/10/13 14:43:47;;;;;;;1.63;0.70;;;23.00;99.90;;;;;;5075738;28;20990;-80
2023/10/13 14:46:15;;;;;;;1.03;0.87;;;23.00;99.90;;;;;;5075716;28;20535;-80
2023/10/13 14:48:41;;;;;;;0.50;0.30;;;22.90;99.90;;;;;;5075653;28;20880;-81
2023/10/13 14:51:12;;;;;;;1.23;1.13;;;22.90;99.90;;;;;;5075340;28;20436;-80
2023/10/13 14:53:43;;;;;;;0.93;0.80;;;22.80;99.90;;;;;;5075822;28;20967;-79
2023/10/13 14:56:12;;;;;;;3.20;1.73;;;22.80;99.90;;;;;;5075006;28;20444;-81
2023/10/13 14:58:42;;;;;;;0.77;0.50;;;22.70;99.90;;;;;;5075740;28;20476;-81
2023/10/13 15:01:13;;;;;;;2.20;2.03;;;22.70;99.90;;;;;;5075234;28;20437;-81
2023/10/13 15:03:40;;;;;;;0.80;0.80;;;22.70;99.90;;;;;;5075695;28;20455;-79
2023/10/13 15:06:07;;;;;;;0.60;0.43;;;22.60;99.90;;;;;;5075135;28;20437;-80
2023/10/13 15:08:34;;;;;;;6.60;4.27;;;22.60;99.90;;;;;;5075416;28;20432;-80
2023/10/13 15:11:12;;;;;;;1.63;1.10;;;22.60;99.90;;;;;;5075228;28;20433;-80
2023/10/13 15:13:40;;;;;;;1.10;1.07;;;22.50;99.90;;;;;;5075349;28;20460;-79
2023/10/13 15:16:17;;;;;;;2.40;0.80;;;22.50;99.90;;;;;;5074873;28;20433;-81
2023/10/13 15:18:45;;;;;;;0.50;0.30;;;22.50;99.90;;;;;;5075598;28;20436;-78
2023/10/13 15:21:12;;;;;;;1.10;1.03;;;22.50;99.90;;;;;;5074784;28;20778;-80